Time;durP1;ratioP1;P1;durP2;ratioP2;P2;SDS_P1;SDS_P2;PMS_P1;PMS_P2;Temp;Humidity;BMP_temperature;BMP_pressure;BME280_temperature;BME280_humidity;BME280_pressure;Samples;Min_cycle;Max_cycle;Signal;HPM_P1;HPM_P2
2024/01/28 00:02:58;;;;;;;9.57;3.90;;;4.70;86.50;;;;;;10409969;28;20745;-62
2024/01/28 00:08:02;;;;;;;11.40;4.50;;;4.70;86.50;;;;;;10415811;28;20218;-62
2024/01/28 00:13:05;;;;;;;10.17;4.13;;;4.70;86.70;;;;;;10421090;28;20229;-62
2024/01/28 00:18:10;;;;;;;9.03;3.93;;;4.70;86.60;;;;;;10407184;28;20795;-63
2024/01/28 00:23:14;;;;;;;9.63;4.20;;;4.60;86.40;;;;;;10411508;28;20229;-63
2024/01/28 00:28:18;;;;;;;8.83;3.97;;;4.50;86.20;;;;;;10420059;28;20260;-64
2024/01/28 00:33:23;;;;;;;7.13;3.40;;;4.50;86.30;;;;;;10409847;28;20257;-62
2024/01/28 00:38:31;;;;;;;9.97;4.07;;;4.40;86.30;;;;;;10409218;28;20197;-63
2024/01/28 00:43:34;;;;;;;12.13;4.40;;;4.40;86.20;;;;;;10417790;28;20227;-64
2024/01/28 00:48:39;;;;;;;7.47;4.03;;;4.30;86.30;;;;;;10409671;28;20271;-62
2024/01/28 00:53:43;;;;;;;11.17;3.70;;;4.30;86.50;;;;;;10406874;28;20255;-63
2024/01/28 00:58:47;;;;;;;11.87;3.90;;;4.30;86.20;;;;;;10411862;28;20210;-63
2024/01/28 01:03:52;;;;;;;9.50;4.10;;;4.20;86.00;;;;;;10419404;28;20714;-62
2024/01/28 01:08:56;;;;;;;7.43;3.97;;;4.10;85.90;;;;;;10408071;28;20351;-63
2024/01/28 01:14:00;;;;;;;8.47;4.00;;;4.10;86.00;;;;;;10420565;28;20716;-64
2024/01/28 01:19:05;;;;;;;11.07;4.30;;;4.00;85.90;;;;;;10416759;28;20740;-63
2024/01/28 01:24:09;;;;;;;9.07;4.43;;;4.00;86.00;;;;;;10408098;28;20226;-67
2024/01/28 01:29:13;;;;;;;10.97;5.23;;;3.90;85.90;;;;;;10422567;28;20255;-63
2024/01/28 01:34:18;;;;;;;13.90;5.40;;;3.90;85.90;;;;;;10416975;28;20896;-64
2024/01/28 01:39:22;;;;;;;9.23;5.70;;;3.90;86.20;;;;;;10411410;28;20267;-63
2024/01/28 01:44:26;;;;;;;17.70;6.40;;;3.90;86.30;;;;;;10407535;28;20258;-63
2024/01/28 01:49:32;;;;;;;9.87;4.90;;;3.90;86.00;;;;;;10408337;28;20275;-63
2024/01/28 01:54:36;;;;;;;14.73;5.90;;;3.90;86.00;;;;;;10408542;28;20277;-63
2024/01/28 01:59:41;;;;;;;12.70;5.23;;;3.90;86.20;;;;;;10410083;28;20691;-62
2024/01/28 02:04:46;;;;;;;10.27;5.00;;;3.90;86.10;;;;;;10412761;28;21526;-63
2024/01/28 02:09:50;;;;;;;11.33;5.40;;;3.90;85.80;;;;;;10410008;28;20892;-65
2024/01/28 02:15:04;;;;;;;12.17;5.83;;;3.90;85.80;;;;;;10408271;28;20674;-65
2024/01/28 02:20:10;;;;;;;9.50;4.93;;;3.80;85.90;;;;;;10409126;28;20815;-64
2024/01/28 02:25:16;;;;;;;10.73;5.00;;;3.80;85.90;;;;;;10420070;28;20296;-63
2024/01/28 02:30:19;;;;;;;13.17;4.87;;;3.80;85.90;;;;;;10418926;28;20211;-64
2024/01/28 02:35:23;;;;;;;8.37;4.67;;;3.80;86.00;;;;;;10399287;28;20261;-63
2024/01/28 02:40:28;;;;;;;8.57;4.70;;;3.80;85.80;;;;;;10414543;28;20240;-64
2024/01/28 02:45:31;;;;;;;9.40;5.00;;;3.80;85.80;;;;;;10410120;28;20221;-62
2024/01/28 02:50:35;;;;;;;9.80;5.07;;;3.80;85.70;;;;;;10405492;28;20198;-62
2024/01/28 02:55:40;;;;;;;10.07;4.60;;;3.80;85.60;;;;;;10407428;28;20249;-63
2024/01/28 03:00:43;;;;;;;8.40;4.90;;;3.80;85.50;;;;;;10419845;28;20208;-63
2024/01/28 03:05:47;;;;;;;12.07;5.07;;;3.80;85.40;;;;;;10405199;28;20228;-63
2024/01/28 03:10:52;;;;;;;12.83;5.47;;;3.80;85.60;;;;;;10409613;28;20260;-64
2024/01/28 03:15:56;;;;;;;11.43;5.17;;;3.80;85.40;;;;;;10416001;28;20302;-64
2024/01/28 03:20:59;;;;;;;12.60;4.73;;;3.80;85.50;;;;;;10406319;28;20268;-63
2024/01/28 03:26:04;;;;;;;7.47;4.27;;;3.80;85.50;;;;;;10410913;28;20293;-64
2024/01/28 03:31:08;;;;;;;8.80;4.53;;;3.90;85.50;;;;;;10409312;28;20197;-63
2024/01/28 03:36:12;;;;;;;10.60;4.80;;;3.80;85.50;;;;;;10410708;28;20261;-62
2024/01/28 03:41:18;;;;;;;7.70;4.73;;;3.80;85.20;;;;;;10404033;28;20233;-63
2024/01/28 03:46:22;;;;;;;7.90;4.27;;;3.80;85.20;;;;;;10411777;28;20274;-63
2024/01/28 03:51:25;;;;;;;8.73;4.87;;;3.80;85.20;;;;;;10406146;28;20684;-64
2024/01/28 03:56:30;;;;;;;14.37;5.50;;;3.80;85.30;;;;;;10418764;28;20255;-63
2024/01/28 04:01:35;;;;;;;11.00;5.20;;;3.70;85.20;;;;;;10419236;28;20778;-63
2024/01/28 04:06:43;;;;;;;12.83;5.27;;;3.70;85.10;;;;;;10417168;28;20738;-63
2024/01/28 04:11:48;;;;;;;9.50;5.20;;;3.70;85.20;;;;;;10410090;28;20201;-63
2024/01/28 04:16:52;;;;;;;11.37;4.63;;;3.70;85.00;;;;;;10415620;28;20220;-65
2024/01/28 04:21:55;;;;;;;10.73;5.10;;;3.60;85.00;;;;;;10420599;28;20258;-63
2024/01/28 04:27:00;;;;;;;7.53;4.00;;;3.60;84.90;;;;;;10417091;28;20194;-62
2024/01/28 04:32:05;;;;;;;13.80;4.20;;;3.60;85.00;;;;;;10422908;28;20221;-63
2024/01/28 04:37:08;;;;;;;6.27;4.43;;;3.60;85.00;;;;;;10403883;28;20859;-63
2024/01/28 04:42:13;;;;;;;8.20;3.90;;;3.60;85.00;;;;;;10406907;28;20225;-63
2024/01/28 04:47:17;;;;;;;7.77;3.60;;;3.70;85.00;;;;;;10398941;28;20278;-62
2024/01/28 04:52:21;;;;;;;10.20;3.93;;;3.70;84.90;;;;;;10396924;28;20223;-63
2024/01/28 04:57:26;;;;;;;5.40;3.77;;;3.60;84.80;;;;;;10398770;28;20263;-62
2024/01/28 05:02:30;;;;;;;7.80;3.70;;;3.70;85.00;;;;;;10408685;28;20760;-64
2024/01/28 05:07:34;;;;;;;8.43;3.70;;;3.70;84.90;;;;;;10410821;28;20677;-63
2024/01/28 05:12:38;;;;;;;5.00;3.30;;;3.70;84.80;;;;;;10405522;28;20838;-62
2024/01/28 05:17:42;;;;;;;7.87;3.50;;;3.60;84.70;;;;;;10404632;28;20715;-63
2024/01/28 05:22:46;;;;;;;9.37;3.40;;;3.60;84.80;;;;;;10400450;28;20295;-64
2024/01/28 05:27:52;;;;;;;7.80;3.57;;;3.60;84.60;;;;;;10394272;28;20810;-62
2024/01/28 05:32:55;;;;;;;9.50;3.33;;;3.60;84.50;;;;;;10413088;28;20263;-64
2024/01/28 05:37:59;;;;;;;6.73;2.83;;;3.60;84.60;;;;;;10407784;28;20253;-69
2024/01/28 05:43:04;;;;;;;8.23;3.43;;;3.50;84.50;;;;;;10396369;28;20680;-63
2024/01/28 05:48:08;;;;;;;4.83;3.50;;;3.60;84.40;;;;;;10409292;28;20268;-63
2024/01/28 05:53:12;;;;;;;7.53;3.27;;;3.50;84.20;;;;;;10407731;28;20254;-63
2024/01/28 05:58:17;;;;;;;7.33;3.87;;;3.50;84.20;;;;;;10413182;28;20198;-63
2024/01/28 06:03:21;;;;;;;7.20;3.47;;;3.50;84.30;;;;;;10413387;28;20244;-63
2024/01/28 06:08:24;;;;;;;8.60;4.20;;;3.40;84.10;;;;;;10412208;28;20232;-62
2024/01/28 06:13:29;;;;;;;8.53;4.27;;;3.40;84.20;;;;;;10421404;28;20277;-63
2024/01/28 06:18:35;;;;;;;7.57;3.80;;;3.40;84.10;;;;;;10418124;28;20229;-64
2024/01/28 06:23:40;;;;;;;7.83;3.90;;;3.40;84.10;;;;;;10403945;28;20282;-64
2024/01/28 06:28:46;;;;;;;10.97;4.47;;;3.40;84.20;;;;;;10408284;28;20197;-63
2024/01/28 06:33:49;;;;;;;8.07;4.70;;;3.30;84.00;;;;;;10391460;28;20223;-64
2024/01/28 06:38:54;;;;;;;8.10;4.53;;;3.40;84.20;;;;;;10406587;28;20750;-63
2024/01/28 06:44:00;;;;;;;8.40;4.90;;;3.30;84.10;;;;;;10403946;28;20246;-64
2024/01/28 06:49:05;;;;;;;10.07;4.70;;;3.30;84.00;;;;;;10409492;28;20265;-60
2024/01/28 06:54:10;;;;;;;11.97;4.47;;;3.20;84.00;;;;;;10412453;28;20219;-60
2024/01/28 06:59:15;;;;;;;7.53;4.87;;;3.20;84.10;;;;;;10403280;28;20203;-60
2024/01/28 07:04:19;;;;;;;10.43;5.30;;;3.20;84.20;;;;;;10408007;28;20306;-59
2024/01/28 07:09:23;;;;;;;9.93;5.63;;;3.30;84.20;;;;;;10389722;28;20199;-60
2024/01/28 07:14:30;;;;;;;9.60;5.83;;;3.20;84.20;;;;;;10400183;28;20280;-61
2024/01/28 07:19:35;;;;;;;11.13;5.40;;;3.20;84.20;;;;;;10402025;28;20266;-62
2024/01/28 07:24:39;;;;;;;10.20;5.13;;;3.20;84.20;;;;;;10406353;28;20231;-64
2024/01/28 07:29:44;;;;;;;9.40;5.40;;;3.30;84.30;;;;;;10408818;28;20732;-63
2024/01/28 07:34:48;;;;;;;7.87;5.03;;;3.30;83.90;;;;;;10413760;28;20717;-63
2024/01/28 07:39:52;;;;;;;8.87;5.10;;;3.30;83.90;;;;;;10419340;28;20266;-63
2024/01/28 07:44:57;;;;;;;12.27;6.35;;;3.30;83.90;;;;;;10413182;28;20491;-63
2024/01/28 07:50:01;;;;;;;12.63;5.60;;;3.60;83.60;;;;;;10412315;28;20271;-67
2024/01/28 07:55:05;;;;;;;9.70;5.20;;;3.60;84.20;;;;;;10417003;28;20634;-64
2024/01/28 08:00:12;;;;;;;9.50;4.93;;;3.60;84.10;;;;;;10412634;28;20571;-64
2024/01/28 08:05:15;;;;;;;9.03;5.03;;;3.50;83.40;;;;;;10407449;28;20217;-64
2024/01/28 08:10:19;;;;;;;11.90;5.43;;;3.40;83.60;;;;;;10408626;28;20205;-65
2024/01/28 08:15:24;;;;;;;11.17;5.60;;;3.40;83.70;;;;;;10415163;28;20272;-63
2024/01/28 08:20:28;;;;;;;10.23;5.30;;;3.40;83.80;;;;;;10409382;28;20201;-64
2024/01/28 08:25:34;;;;;;;13.50;5.53;;;3.40;83.80;;;;;;10407264;28;20240;-65
2024/01/28 08:30:39;;;;;;;13.77;7.10;;;3.40;83.70;;;;;;10409591;28;20224;-66
2024/01/28 08:35:43;;;;;;;11.87;6.30;;;3.40;83.70;;;;;;10406894;28;20214;-66
2024/01/28 08:40:47;;;;;;;11.53;6.10;;;3.50;83.70;;;;;;10412018;28;20240;-66
2024/01/28 08:45:52;;;;;;;7.87;5.23;;;3.60;83.90;;;;;;10392570;28;20745;-66
2024/01/28 08:50:56;;;;;;;9.10;5.93;;;3.70;83.90;;;;;;10401867;28;20209;-67
2024/01/28 08:56:00;;;;;;;9.97;5.10;;;3.70;83.90;;;;;;10423857;28;20233;-68
2024/01/28 09:01:05;;;;;;;11.13;5.90;;;3.90;83.80;;;;;;10404341;28;20259;-67
2024/01/28 09:06:09;;;;;;;10.67;5.33;;;4.00;83.30;;;;;;10405045;28;20783;-67
2024/01/28 09:11:13;;;;;;;7.97;4.83;;;4.00;83.50;;;;;;10392748;28;20248;-66
2024/01/28 09:16:18;;;;;;;7.03;4.80;;;4.10;83.70;;;;;;10404085;28;20285;-66
2024/01/28 09:21:22;;;;;;;8.17;4.73;;;4.20;83.50;;;;;;10413101;28;20660;-66
2024/01/28 09:26:25;;;;;;;9.07;5.03;;;4.40;84.00;;;;;;10407296;28;20282;-66
2024/01/28 09:31:30;;;;;;;8.47;4.90;;;4.60;84.00;;;;;;10402815;28;20643;-65
2024/01/28 09:36:34;;;;;;;9.40;5.50;;;4.70;84.00;;;;;;10406407;28;20276;-65
2024/01/28 09:41:44;;;;;;;7.93;5.37;;;4.80;84.90;;;;;;10409789;28;20666;-66
2024/01/28 09:46:49;;;;;;;10.30;5.53;;;4.90;85.10;;;;;;10413919;28;20206;-67
2024/01/28 09:51:53;;;;;;;8.73;5.03;;;5.00;85.60;;;;;;10401302;28;20198;-67
2024/01/28 09:56:56;;;;;;;6.60;4.63;;;5.10;85.80;;;;;;10408012;28;20241;-65
2024/01/28 10:02:03;;;;;;;8.53;4.73;;;5.30;87.10;;;;;;10415178;28;20225;-65
2024/01/28 10:07:09;;;;;;;7.70;4.90;;;5.40;87.30;;;;;;10412830;28;20568;-65
2024/01/28 10:12:13;;;;;;;7.47;5.20;;;5.60;88.10;;;;;;10412386;28;20222;-66
2024/01/28 10:17:18;;;;;;;7.63;4.70;;;5.70;87.50;;;;;;10409045;28;20299;-65
2024/01/28 10:22:21;;;;;;;4.17;3.17;;;5.90;86.70;;;;;;10410197;28;20336;-65
2024/01/28 10:27:25;;;;;;;3.67;2.30;;;6.00;86.70;;;;;;10414225;28;20293;-65
2024/01/28 10:32:30;;;;;;;3.90;1.60;;;6.20;86.50;;;;;;10411496;28;20321;-66
2024/01/28 10:37:34;;;;;;;2.70;1.37;;;6.40;85.60;;;;;;10403826;28;20298;-64
2024/01/28 10:42:39;;;;;;;2.73;1.27;;;6.60;85.20;;;;;;10402844;28;20807;-65
2024/01/28 10:47:49;;;;;;;3.63;1.40;;;6.80;84.30;;;;;;10414172;28;20237;-65
2024/01/28 10:52:54;;;;;;;2.07;1.70;;;7.00;83.90;;;;;;10419270;28;20703;-65
2024/01/28 10:57:58;;;;;;;4.37;1.23;;;7.20;83.60;;;;;;10416606;28;20284;-66
2024/01/28 11:03:07;;;;;;;3.37;1.10;;;7.40;84.90;;;;;;10417769;28;20223;-65
2024/01/28 11:08:11;;;;;;;3.93;1.60;;;7.50;83.30;;;;;;10418904;28;20204;-65
2024/01/28 11:13:15;;;;;;;3.30;1.40;;;7.70;83.80;;;;;;10415504;28;20259;-65
2024/01/28 11:18:20;;;;;;;2.63;1.30;;;7.80;83.00;;;;;;10423619;28;20277;-65
2024/01/28 11:23:24;;;;;;;3.73;1.30;;;8.00;82.90;;;;;;10418571;28;20297;-65
2024/01/28 11:28:28;;;;;;;1.90;1.20;;;8.10;82.70;;;;;;10431399;28;20203;-64
2024/01/28 11:33:36;;;;;;;3.20;1.30;;;8.20;83.30;;;;;;10416680;28;20216;-64
2024/01/28 11:38:43;;;;;;;2.80;1.23;;;8.40;82.50;;;;;;10421697;28;20305;-65
2024/01/28 11:43:47;;;;;;;3.47;1.53;;;8.50;82.60;;;;;;10422208;28;20770;-65
2024/01/28 11:48:52;;;;;;;1.50;1.20;;;8.70;83.10;;;;;;10416502;28;20235;-65
2024/01/28 11:53:56;;;;;;;3.33;1.73;;;8.80;82.30;;;;;;10428328;28;20212;-65
2024/01/28 11:59:00;;;;;;;2.47;1.70;;;9.00;82.50;;;;;;10418518;28;20643;-65
2024/01/28 12:04:05;;;;;;;2.25;1.40;;;9.20;82.60;;;;;;10410169;28;20270;-66
2024/01/28 12:09:09;;;;;;;1.63;1.30;;;9.40;82.00;;;;;;10411461;28;20228;-65
2024/01/28 12:14:13;;;;;;;3.57;1.70;;;9.70;81.80;;;;;;10417399;28;20685;-65
2024/01/28 12:19:19;;;;;;;4.17;2.17;;;10.00;80.50;;;;;;10414941;28;20259;-65
2024/01/28 12:24:26;;;;;;;5.07;2.47;;;10.10;80.60;;;;;;10411842;28;20253;-65
2024/01/28 12:29:30;;;;;;;3.95;1.80;;;10.40;80.50;;;;;;10412520;28;20750;-66
2024/01/28 12:34:35;;;;;;;4.25;1.67;;;10.60;80.20;;;;;;10411371;28;20270;-64
2024/01/28 12:39:39;;;;;;;2.83;1.67;;;10.80;79.50;;;;;;10409125;28;20256;-65
2024/01/28 12:44:43;;;;;;;4.00;2.65;;;11.10;80.50;;;;;;10410206;28;20255;-65
2024/01/28 12:49:48;;;;;;;3.28;1.88;;;11.30;80.00;;;;;;10411257;28;20231;-65
2024/01/28 12:54:52;;;;;;;2.90;1.70;;;11.50;80.20;;;;;;10417597;28;20281;-65
2024/01/28 12:59:56;;;;;;;2.90;1.80;;;11.80;80.30;;;;;;10423600;28;20247;-65
2024/01/28 13:05:01;;;;;;;2.55;1.77;;;12.00;80.50;;;;;;10413454;28;20242;-65
2024/01/28 13:10:07;;;;;;;5.20;1.67;;;12.20;79.20;;;;;;10409925;28;20262;-66
2024/01/28 13:15:11;;;;;;;3.33;2.03;;;12.40;79.30;;;;;;10414900;28;20220;-65
2024/01/28 13:20:17;;;;;;;5.63;2.20;;;12.60;78.50;;;;;;10419486;28;20219;-64
2024/01/28 13:25:21;;;;;;;3.10;2.30;;;12.70;78.40;;;;;;10420858;28;20232;-64
2024/01/28 13:30:25;;;;;;;2.25;1.40;;;12.60;77.50;;;;;;10430894;28;20235;-67
2024/01/28 13:35:32;;;;;;;2.42;1.50;;;12.50;77.50;;;;;;10416795;28;20212;-65
2024/01/28 13:40:36;;;;;;;2.47;1.73;;;12.30;77.50;;;;;;10409243;28;20449;-65
2024/01/28 13:45:40;;;;;;;2.58;1.50;;;12.10;75.80;;;;;;10419864;28;20837;-64
2024/01/28 13:50:45;;;;;;;3.45;1.60;;;11.80;78.70;;;;;;10422003;28;20242;-66
2024/01/28 13:55:49;;;;;;;2.75;1.48;;;11.60;79.10;;;;;;10423246;28;20268;-67
2024/01/28 14:00:52;;;;;;;3.53;1.92;;;11.40;78.90;;;;;;10422737;28;20276;-65
2024/01/28 14:05:57;;;;;;;3.50;1.80;;;11.30;79.80;;;;;;10423594;28;20481;-63
2024/01/28 14:11:01;;;;;;;1.98;1.40;;;11.20;80.20;;;;;;10411597;28;20219;-63
2024/01/28 14:16:05;;;;;;;2.22;1.38;;;11.10;80.00;;;;;;10431317;28;20697;-64
2024/01/28 14:21:10;;;;;;;2.78;1.50;;;11.00;78.90;;;;;;10422091;28;20224;-63
2024/01/28 14:26:14;;;;;;;2.72;1.30;;;11.00;79.00;;;;;;10441624;28;20228;-64
2024/01/28 14:31:17;;;;;;;3.38;1.30;;;11.00;79.70;;;;;;10394432;28;20196;-65
2024/01/28 14:36:22;;;;;;;1.88;1.50;;;11.00;80.30;;;;;;10412374;28;20227;-64
2024/01/28 14:41:26;;;;;;;2.53;1.67;;;10.90;79.70;;;;;;10377322;28;20204;-63
2024/01/28 14:46:30;;;;;;;2.70;1.42;;;10.90;79.40;;;;;;10409466;28;20224;-64
2024/01/28 14:51:39;;;;;;;2.13;1.33;;;10.80;79.80;;;;;;10437771;28;20270;-62
2024/01/28 14:56:42;;;;;;;1.65;1.23;;;10.80;79.00;;;;;;10413239;28;20660;-64
2024/01/28 15:01:46;;;;;;;2.97;1.40;;;10.80;78.80;;;;;;10449028;28;20838;-63
2024/01/28 15:06:51;;;;;;;2.45;1.30;;;10.70;78.80;;;;;;10416695;28;20208;-63
2024/01/28 15:11:55;;;;;;;1.48;1.15;;;10.70;79.90;;;;;;10409040;28;20242;-64
2024/01/28 15:16:58;;;;;;;3.50;1.67;;;10.60;79.70;;;;;;10430468;28;20207;-63
2024/01/28 15:22:03;;;;;;;4.28;1.63;;;10.60;79.20;;;;;;10409727;28;20246;-62
2024/01/28 15:27:08;;;;;;;2.35;1.60;;;10.60;79.40;;;;;;10409704;28;20659;-63
2024/01/28 15:32:11;;;;;;;2.72;1.70;;;10.50;79.50;;;;;;10409444;28;20843;-64
2024/01/28 15:37:17;;;;;;;1.50;1.20;;;10.50;80.40;;;;;;10423041;28;20614;-65
2024/01/28 15:42:21;;;;;;;2.47;1.20;;;10.40;80.80;;;;;;10417005;28;20220;-66
2024/01/28 15:47:25;;;;;;;2.80;1.58;;;10.30;80.30;;;;;;10410557;28;20208;-63
2024/01/28 15:52:30;;;;;;;2.58;1.73;;;10.30;79.90;;;;;;10414984;28;20270;-63
2024/01/28 15:57:34;;;;;;;3.70;2.30;;;10.20;81.10;;;;;;10417946;28;20655;-63
2024/01/28 16:02:38;;;;;;;3.90;3.25;;;10.10;81.40;;;;;;10420436;28;20228;-64
2024/01/28 16:07:45;;;;;;;5.25;2.75;;;10.00;80.50;;;;;;10411069;28;20205;-64
2024/01/28 16:12:48;;;;;;;4.00;2.77;;;9.90;83.70;;;;;;10414089;28;20224;-63
2024/01/28 16:17:52;;;;;;;3.73;2.63;;;9.80;83.20;;;;;;10438484;28;20216;-65
2024/01/28 16:22:58;;;;;;;2.67;2.10;;;9.70;83.00;;;;;;10444127;28;20702;-64
2024/01/28 16:28:02;;;;;;;4.10;2.53;;;9.70;83.00;;;;;;10416773;28;20204;-63
2024/01/28 16:33:06;;;;;;;4.37;2.60;;;9.60;83.20;;;;;;10426838;28;20273;-64
2024/01/28 16:38:12;;;;;;;5.15;3.10;;;9.50;82.00;;;;;;10415714;28;20453;-64
2024/01/28 16:43:15;;;;;;;5.70;2.72;;;9.40;76.10;;;;;;10416815;28;20332;-64
2024/01/28 16:48:25;;;;;;;6.05;2.60;;;9.30;80.50;;;;;;10413799;28;20227;-64
2024/01/28 16:53:31;;;;;;;3.63;2.63;;;9.20;79.70;;;;;;10421083;28;20653;-61
2024/01/28 16:58:34;;;;;;;4.50;4.07;;;9.10;81.60;;;;;;10415019;28;20691;-62
2024/01/28 17:03:38;;;;;;;4.60;3.10;;;9.00;82.00;;;;;;10411098;28;20714;-61
2024/01/28 17:08:43;;;;;;;3.57;2.83;;;8.90;83.30;;;;;;10413976;28;20254;-62
2024/01/28 17:13:47;;;;;;;4.55;2.67;;;8.90;81.50;;;;;;10423494;28;20449;-62
2024/01/28 17:18:50;;;;;;;3.47;2.00;;;8.90;81.50;;;;;;10408030;28;21027;-64
2024/01/28 17:23:55;;;;;;;2.57;2.20;;;8.90;82.40;;;;;;10421397;28;20691;-63
2024/01/28 17:28:59;;;;;;;2.03;1.50;;;8.90;82.00;;;;;;10410590;28;20211;-62
2024/01/28 17:34:03;;;;;;;2.33;1.80;;;8.90;82.60;;;;;;10414154;28;20258;-63
2024/01/28 17:39:11;;;;;;;3.70;2.60;;;8.90;82.10;;;;;;10421334;28;20234;-67
2024/01/28 17:44:15;;;;;;;2.83;1.90;;;8.90;81.40;;;;;;10414842;28;20593;-67
2024/01/28 17:49:19;;;;;;;2.17;1.67;;;8.90;81.50;;;;;;10416546;28;20193;-68
2024/01/28 17:54:24;;;;;;;3.20;2.10;;;8.90;80.70;;;;;;10439221;28;20223;-67
2024/01/28 17:59:28;;;;;;;2.10;1.60;;;8.90;81.20;;;;;;10455520;28;20258;-67
2024/01/28 18:04:32;;;;;;;1.80;1.30;;;8.90;80.70;;;;;;10435613;28;20286;-64
2024/01/28 18:09:38;;;;;;;2.90;1.83;;;8.90;78.80;;;;;;10429257;28;20195;-64
2024/01/28 18:14:42;;;;;;;4.10;3.47;;;8.90;80.70;;;;;;10424767;28;20204;-65
2024/01/28 18:19:46;;;;;;;3.63;1.80;;;9.00;80.70;;;;;;10424534;28;20212;-65
2024/01/28 18:24:51;;;;;;;3.17;1.67;;;9.00;81.40;;;;;;10418535;28;20246;-63
2024/01/28 18:29:55;;;;;;;2.40;1.57;;;9.00;81.30;;;;;;10421303;28;20249;-63
2024/01/28 18:34:59;;;;;;;1.50;1.23;;;8.90;80.40;;;;;;10421503;28;20223;-63
2024/01/28 18:40:05;;;;;;;2.00;1.60;;;9.00;79.80;;;;;;10431894;28;20292;-63
2024/01/28 18:45:10;;;;;;;2.57;1.80;;;9.00;81.10;;;;;;10434607;28;20224;-63
2024/01/28 18:50:14;;;;;;;2.17;1.60;;;9.00;82.30;;;;;;10427655;28;20347;-62
2024/01/28 18:55:19;;;;;;;1.80;1.60;;;9.00;81.70;;;;;;10436224;28;20239;-64
2024/01/28 19:00:23;;;;;;;3.67;1.90;;;8.90;81.00;;;;;;10430622;28;20249;-63
2024/01/28 19:05:27;;;;;;;3.63;2.17;;;8.90;81.30;;;;;;10426014;28;20232;-63
2024/01/28 19:10:32;;;;;;;3.37;1.97;;;8.90;81.20;;;;;;10418447;28;20231;-64
2024/01/28 19:15:35;;;;;;;2.00;1.70;;;8.90;80.60;;;;;;10412750;28;20257;-65
2024/01/28 19:20:39;;;;;;;1.97;1.47;;;8.90;80.80;;;;;;10423686;28;21386;-63
2024/01/28 19:25:44;;;;;;;3.17;1.70;;;8.90;81.30;;;;;;10417816;28;20646;-63
2024/01/28 19:30:48;;;;;;;1.90;1.37;;;8.90;79.80;;;;;;10424802;28;20758;-63
2024/01/28 19:35:52;;;;;;;3.63;2.70;;;8.90;79.10;;;;;;10428871;28;20290;-60
2024/01/28 19:40:59;;;;;;;3.80;1.73;;;9.00;79.90;;;;;;10425289;28;20212;-60
2024/01/28 19:46:02;;;;;;;1.70;1.60;;;9.00;78.70;;;;;;10422428;28;20295;-63
2024/01/28 19:51:06;;;;;;;2.00;1.73;;;9.10;78.40;;;;;;10420440;28;20252;-62
2024/01/28 19:56:13;;;;;;;2.07;1.70;;;9.10;77.80;;;;;;10420861;28;20212;-62
2024/01/28 20:01:17;;;;;;;1.63;1.40;;;9.20;76.30;;;;;;10400052;28;20773;-65
2024/01/28 20:06:21;;;;;;;2.10;1.30;;;9.30;76.90;;;;;;10421912;28;20224;-66
2024/01/28 20:11:40;;;;;;;2.10;1.43;;;9.40;75.10;;;;;;10416038;28;20220;-60
2024/01/28 20:16:45;;;;;;;2.37;1.70;;;9.40;75.10;;;;;;10411288;28;20235;-61
2024/01/28 20:21:50;;;;;;;1.87;1.50;;;9.50;77.10;;;;;;10425990;28;20216;-63
2024/01/28 20:26:55;;;;;;;2.57;1.83;;;9.50;76.90;;;;;;10421211;28;20258;-62
2024/01/28 20:31:59;;;;;;;3.50;1.80;;;9.60;76.50;;;;;;10420755;28;20278;-61
2024/01/28 20:37:03;;;;;;;1.90;1.50;;;9.60;76.90;;;;;;10419621;28;20226;-63
2024/01/28 20:42:10;;;;;;;3.08;1.50;;;9.60;75.50;;;;;;10417667;28;20274;-60
2024/01/28 20:47:16;;;;;;;3.30;1.40;;;9.70;76.20;;;;;;10411244;28;20208;-61
2024/01/28 20:52:19;;;;;;;1.98;1.40;;;9.70;74.60;;;;;;10425521;28;20371;-62
2024/01/28 20:57:25;;;;;;;1.93;1.57;;;9.70;75.20;;;;;;10412153;28;20205;-62
2024/01/28 21:02:28;;;;;;;3.13;1.98;;;9.70;76.80;;;;;;10415023;28;20719;-60
2024/01/28 21:07:32;;;;;;;2.70;1.95;;;9.70;73.40;;;;;;10417425;28;20213;-60
2024/01/28 21:12:37;;;;;;;2.65;2.03;;;9.80;75.30;;;;;;10418618;28;20224;-62
2024/01/28 21:17:41;;;;;;;5.32;2.80;;;9.80;74.50;;;;;;10417534;28;20200;-61
2024/01/28 21:22:45;;;;;;;3.42;2.60;;;9.80;76.30;;;;;;10413115;28;20232;-63
2024/01/28 21:27:51;;;;;;;4.43;2.20;;;9.80;75.50;;;;;;10415591;28;20243;-63
2024/01/28 21:32:55;;;;;;;3.67;2.30;;;9.80;75.50;;;;;;10416812;28;20478;-62
2024/01/28 21:37:59;;;;;;;4.18;2.00;;;9.80;76.60;;;;;;10408230;28;20196;-63
2024/01/28 21:43:04;;;;;;;2.88;1.65;;;9.80;75.70;;;;;;10408510;28;20228;-63
2024/01/28 21:48:08;;;;;;;2.17;1.98;;;9.80;75.80;;;;;;10413748;28;20209;-61
2024/01/28 21:53:12;;;;;;;3.43;2.10;;;9.80;76.20;;;;;;10410357;28;20266;-61
2024/01/28 21:58:17;;;;;;;2.47;1.92;;;9.80;76.60;;;;;;10410249;28;20204;-63
2024/01/28 22:03:20;;;;;;;2.58;1.92;;;9.80;76.80;;;;;;10404774;28;20232;-63
2024/01/28 22:08:24;;;;;;;2.35;1.67;;;9.80;76.60;;;;;;10423917;28;20204;-63
2024/01/28 22:13:29;;;;;;;2.40;1.90;;;9.80;76.00;;;;;;10408992;28;20764;-64
2024/01/28 22:18:35;;;;;;;2.53;1.63;;;9.80;75.40;;;;;;10413395;28;20204;-64
2024/01/28 22:23:39;;;;;;;3.90;1.92;;;9.80;76.20;;;;;;10415384;28;20562;-64
2024/01/28 22:28:45;;;;;;;3.83;2.10;;;9.80;75.50;;;;;;10412537;28;20240;-63
2024/01/28 22:33:49;;;;;;;2.45;1.73;;;9.80;77.10;;;;;;10405855;28;20222;-62
2024/01/28 22:38:53;;;;;;;2.50;1.73;;;9.90;76.40;;;;;;10413552;28;20196;-61
2024/01/28 22:43:58;;;;;;;2.92;1.70;;;9.90;76.40;;;;;;10405316;28;20302;-63
2024/01/28 22:49:02;;;;;;;2.88;2.08;;;9.80;75.40;;;;;;10409339;28;20274;-63
2024/01/28 22:54:06;;;;;;;2.00;1.80;;;9.90;76.30;;;;;;10410581;28;20239;-61
2024/01/28 22:59:13;;;;;;;3.22;1.88;;;9.80;74.80;;;;;;10404904;28;20200;-62
2024/01/28 23:04:17;;;;;;;1.90;1.40;;;9.80;77.40;;;;;;10408263;28;20676;-62
2024/01/28 23:09:22;;;;;;;1.65;1.42;;;9.80;76.20;;;;;;10405505;28;20661;-62
2024/01/28 23:14:27;;;;;;;2.07;1.80;;;9.90;75.60;;;;;;10405294;28;20226;-63
2024/01/28 23:19:31;;;;;;;2.78;1.40;;;9.90;76.10;;;;;;10413322;28;20201;-63
2024/01/28 23:24:35;;;;;;;2.33;1.80;;;9.90;75.40;;;;;;10404130;28;20228;-63
2024/01/28 23:29:40;;;;;;;2.88;1.60;;;9.90;76.30;;;;;;10410770;28;20196;-62
2024/01/28 23:34:43;;;;;;;1.90;1.67;;;9.90;76.20;;;;;;10403261;28;20213;-63
2024/01/28 23:39:47;;;;;;;2.92;1.83;;;9.90;76.90;;;;;;10422528;28;20200;-63
2024/01/28 23:44:52;;;;;;;1.98;1.60;;;9.90;76.40;;;;;;10409564;28;20259;-61
2024/01/28 23:49:57;;;;;;;2.50;1.90;;;9.90;76.20;;;;;;10419245;28;20195;-63
2024/01/28 23:55:00;;;;;;;2.17;1.70;;;9.90;76.50;;;;;;10414335;28;20267;-64
